Stornoway — WDC7908 — position and weather

sailwx.info

Track history (hours):
 
Tides and Currents Weather Stations Pressure Air Temp Water Temp Dewpoint Dewpoint Depression Visibility Wind Speed Wind Dir Waves Ship Positions

Stornoway

Owner: Matthews, William, Bainbridge Island, WA. More information available from US FCC via Universal Licensing System and Coast Guard Vessel Documentation Center.

Last reported at 2015-Jun-16 15:33 UTC. Time now 2015-Jul-02 21:33 UTC.
Position N 47°43' W 122°31'.
Warning: this ship's position is 16 days out of date.

Length 13 m.

Type: Pleasure craft. MMSI: 367078810.

Date/timePositionNaut miles runAvg speedWind from/ knotsBaromVisibWave heightAir tempDewpointWater temp
2015-Jun-16 15:33N 47°43' W 122°31'1 8.0
2015-Jun-16 15:27N 47°44' W 122°30'6 7.2
2015-Jun-16 14:33N 47°49' W 122°24'0 0.1
2015-Jun-16 13:28N 47°48' W 122°24'0 0.0
2015-Jun-16 12:31N 47°48' W 122°24'0 0.0
2015-Jun-16 11:31N 47°48' W 122°24'0 0.0
2015-Jun-16 10:31N 47°48' W 122°24'0 0.0
2015-Jun-16 09:31N 47°48' W 122°24'0 0.0
2015-Jun-16 08:32N 47°48' W 122°24'0 0.0
2015-Jun-16 07:31N 47°48' W 122°24'0 0.0
2015-Jun-16 06:32N 47°48' W 122°24'0 0.0
2015-Jun-16 05:32N 47°48' W 122°24'0 0.0
2015-Jun-16 04:32N 47°48' W 122°24'0 0.0
2015-Jun-16 03:32N 47°48' W 122°24'0 0.0
2015-Jun-16 02:32N 47°48' W 122°24'0 0.0
2015-Jun-16 01:32N 47°48' W 122°24'0 0.0
2015-Jun-16 00:32N 47°48' W 122°24'0 0.0
2015-Jun-15 23:32N 47°48' W 122°24'0 0.0
2015-Jun-15 22:32N 47°48' W 122°24'0 0.0
2015-Jun-15 21:32N 47°48' W 122°24'0 0.0
2015-Jun-15 20:32N 47°48' W 122°24'0 0.0
2015-Jun-15 19:32N 47°48' W 122°24'0 0.0
2015-Jun-15 18:32N 47°48' W 122°24'0 0.0
2015-Jun-15 17:32N 47°48' W 122°24'0 0.0
2015-Jun-15 16:32N 47°48' W 122°24'0 0.0
2015-Jun-15 15:32N 47°48' W 122°24'0 0.0
2015-Jun-15 14:32N 47°48' W 122°24'0 0.0
2015-Jun-15 13:32N 47°48' W 122°24'0 0.0
2015-Jun-15 12:32N 47°48' W 122°24'0 0.0
2015-Jun-15 11:32N 47°48' W 122°24'0 0.0
2015-Jun-15 10:32N 47°48' W 122°24'0 0.0
2015-Jun-15 09:32N 47°48' W 122°24'0 0.0
2015-Jun-15 08:32N 47°48' W 122°24'0 0.0
2015-Jun-15 07:32N 47°48' W 122°24'0 0.0
2015-Jun-15 06:32N 47°48' W 122°24'0 0.0
2015-Jun-15 05:32N 47°48' W 122°24'0 0.0
2015-Jun-15 04:32N 47°48' W 122°24'0 0.0
2015-Jun-15 03:32N 47°48' W 122°24'0 0.0
2015-Jun-15 02:32N 47°48' W 122°24'0 0.0
2015-Jun-15 01:32N 47°48' W 122°24'0 0.0
2015-Jun-15 00:32N 47°48' W 122°24'0 0.0
2015-Jun-14 23:32N 47°48' W 122°24'0 0.0
2015-Jun-14 22:32N 47°48' W 122°24'1 2.9
2015-Jun-14 22:13N 47°49' W 122°24'6 9.4
2015-Jun-14 21:33N 47°54' W 122°30'  
2015-Jun-11 22:33N 47°52' W 122°30'7 9.0
2015-Jun-11 21:47N 47°45' W 122°28'2 9.0
2015-Jun-11 21:31N 47°44' W 122°30'1 8.6
2015-Jun-11 21:28N 47°43' W 122°31'  
Track history (hours):
 
Tides and Currents Weather Stations Pressure Air Temp Water Temp Dewpoint Dewpoint Depression Visibility Wind Speed Wind Dir Waves Ship Positions

Stornoway

Owner: Matthews, William, Bainbridge Island, WA. More information available from US FCC via Universal Licensing System and Coast Guard Vessel Documentation Center.

Last reported at 2015-Jun-16 15:33 UTC. Time now 2015-Jul-02 21:33 UTC.
Position N 47°43' W 122°31'.
Warning: this ship's position is 16 days out of date.

Length 13 m.

Type: Pleasure craft. MMSI: 367078810.

Date/timePositionNaut miles runAvg speedWind from/ knotsBaromVisibWave heightAir tempDewpointWater temp
2015-Jun-16 15:33N 47°43' W 122°31'1 8.0
2015-Jun-16 15:27N 47°44' W 122°30'6 7.2
2015-Jun-16 14:33N 47°49' W 122°24'0 0.1
2015-Jun-16 13:28N 47°48' W 122°24'0 0.0
2015-Jun-16 12:31N 47°48' W 122°24'0 0.0
2015-Jun-16 11:31N 47°48' W 122°24'0 0.0
2015-Jun-16 10:31N 47°48' W 122°24'0 0.0
2015-Jun-16 09:31N 47°48' W 122°24'0 0.0
2015-Jun-16 08:32N 47°48' W 122°24'0 0.0
2015-Jun-16 07:31N 47°48' W 122°24'0 0.0
2015-Jun-16 06:32N 47°48' W 122°24'0 0.0
2015-Jun-16 05:32N 47°48' W 122°24'0 0.0
2015-Jun-16 04:32N 47°48' W 122°24'0 0.0
2015-Jun-16 03:32N 47°48' W 122°24'0 0.0
2015-Jun-16 02:32N 47°48' W 122°24'0 0.0
2015-Jun-16 01:32N 47°48' W 122°24'0 0.0
2015-Jun-16 00:32N 47°48' W 122°24'0 0.0
2015-Jun-15 23:32N 47°48' W 122°24'0 0.0
2015-Jun-15 22:32N 47°48' W 122°24'0 0.0
2015-Jun-15 21:32N 47°48' W 122°24'0 0.0
2015-Jun-15 20:32N 47°48' W 122°24'0 0.0
2015-Jun-15 19:32N 47°48' W 122°24'0 0.0
2015-Jun-15 18:32N 47°48' W 122°24'0 0.0
2015-Jun-15 17:32N 47°48' W 122°24'0 0.0
2015-Jun-15 16:32N 47°48' W 122°24'0 0.0
2015-Jun-15 15:32N 47°48' W 122°24'0 0.0
2015-Jun-15 14:32N 47°48' W 122°24'0 0.0
2015-Jun-15 13:32N 47°48' W 122°24'0 0.0
2015-Jun-15 12:32N 47°48' W 122°24'0 0.0
2015-Jun-15 11:32N 47°48' W 122°24'0 0.0
2015-Jun-15 10:32N 47°48' W 122°24'0 0.0
2015-Jun-15 09:32N 47°48' W 122°24'0 0.0
2015-Jun-15 08:32N 47°48' W 122°24'0 0.0
2015-Jun-15 07:32N 47°48' W 122°24'0 0.0
2015-Jun-15 06:32N 47°48' W 122°24'0 0.0
2015-Jun-15 05:32N 47°48' W 122°24'0 0.0
2015-Jun-15 04:32N 47°48' W 122°24'0 0.0
2015-Jun-15 03:32N 47°48' W 122°24'0 0.0
2015-Jun-15 02:32N 47°48' W 122°24'0 0.0
2015-Jun-15 01:32N 47°48' W 122°24'0 0.0
2015-Jun-15 00:32N 47°48' W 122°24'0 0.0
2015-Jun-14 23:32N 47°48' W 122°24'0 0.0
2015-Jun-14 22:32N 47°48' W 122°24'1 2.9
2015-Jun-14 22:13N 47°49' W 122°24'6 9.4
2015-Jun-14 21:33N 47°54' W 122°30'  
2015-Jun-11 22:33N 47°52' W 122°30'7 9.0
2015-Jun-11 21:47N 47°45' W 122°28'2 9.0
2015-Jun-11 21:31N 47°44' W 122°30'1 8.6
2015-Jun-11 21:28N 47°43' W 122°31'  

Dump ship's entire track history